Fisterra (A Coruña), Galicia

latitud = 42° 55' 29''N | longitud = 009° 17' 29''W
230 metros sobre el nivel del mar | datos mensuales

Fecha, hora, temperatura, viento dirección y velocidad, humedad y presión.

  • 16-08-2018 02:00:00 | 17.90°C | Nordeste |29.00 km/h | 92.00% | 989.90 hPa
  • 16-08-2018 01:00:00 | 18.20°C | Nordeste |34.00 km/h | 91.00% | 989.60 hPa
  • 16-08-2018 00:00:00 | 18.10°C | Nordeste |45.00 km/h | 93.00% | 989.00 hPa
  • 15-08-2018 23:00:00 | 18.00°C | Nordeste |41.00 km/h | 92.00% | 989.10 hPa
  • 15-08-2018 22:00:00 | 18.60°C | Nordeste |41.00 km/h | 88.00% | 988.40 hPa
  • 15-08-2018 21:00:00 | 19.70°C | Nordeste |34.00 km/h | 81.00% | 988.10 hPa
  • 15-08-2018 20:00:00 | 23.10°C | Nordeste |19.00 km/h | 68.00% | 988.10 hPa
  • 15-08-2018 19:00:00 | 24.60°C | Nordeste |20.00 km/h | 61.00% | 988.30 hPa
  • 15-08-2018 18:00:00 | 25.70°C | Nordeste |18.00 km/h | 58.00% | 988.40 hPa
  • 15-08-2018 17:00:00 | 27.00°C | Nordeste |10.00 km/h | 55.00% | 988.90 hPa
  • 15-08-2018 16:00:00 | 26.60°C | Norte |8.00 km/h | 52.00% | 989.30 hPa
  • 15-08-2018 15:00:00 | 24.90°C | Norte |7.00 km/h | 54.00% | 989.80 hPa
  • 15-08-2018 14:00:00 | 26.00°C | Oeste |6.00 km/h | 49.00% | 989.80 hPa
  • 15-08-2018 13:00:00 | 26.50°C | Sur |6.00 km/h | 53.00% | 989.90 hPa
  • 15-08-2018 12:00:00 | 24.70°C | Oeste |3.00 km/h | 60.00% | 989.90 hPa
  • 15-08-2018 11:00:00 | 24.30°C | Este |3.00 km/h | 61.00% | 989.60 hPa
  • 15-08-2018 10:00:00 | 23.40°C | Sur |2.00 km/h | 59.00% | 989.30 hPa
  • 15-08-2018 09:00:00 | 23.30°C | Sudeste |11.00 km/h | 54.00% | 988.90 hPa
  • 15-08-2018 08:00:00 | 22.60°C | Sudeste |9.00 km/h | 55.00% | 988.50 hPa
  • 15-08-2018 07:00:00 | 21.20°C | Sudeste |8.00 km/h | 60.00% | 988.30 hPa
  • 15-08-2018 06:00:00 | 20.10°C | Este |19.00 km/h | 64.00% | 988.40 hPa
  • 15-08-2018 05:00:00 | 19.70°C | Este |23.00 km/h | 67.00% | 988.90 hPa
  • 15-08-2018 04:00:00 | 19.20°C | Este |36.00 km/h | 71.00% | 989.30 hPa
  • 15-08-2018 03:00:00 | 18.70°C | Este |33.00 km/h | 73.00% | 989.70 hPa